Current Conditions

Updated: 18-Apr-2019 1:59 PM  
Summary / Temperature Wind Rain






Feels like: 82°F

1-hour difference
1.7°F 1.7°F warmer than last hour.

24-hour difference
9.6°F9.6°F warmer than yesterday at this time.

  Today Yesterday
High: 82.7°F
1:53 PM
77.0°F
3:29 PM
Low: 49.8°F
6:40 AM
47.1°F
5:54 AM
Wind from W W
0.2
Gust:  0.0 mph
0 Beaufort - Calm

Today: 6.0 - 1:30 PM
Month: 20.0 mph - Apr 9
Rain Today: 0.00 in
Current Rate (/hr): 0.000 in
Max Rate (/hr):
Rain Yesterday: 0.00 in
Storm Rain: 0.00 in
This Month: 0.40 in
Season Total: 10.32 in
Last Rain Event: 1 day ago
Humidity / Barometer Sun / Moon
Humidity: 38 Decreased 5.0% in the last hour.
Dew Point: 54.2°F Decreased 1.8°F in the last hour.
Barometer: 30.064 inHg  
Baro Trend: Falling slowly
Sunrise: 6:19 AM
Sunset: 7:32 PM
Moonrise: 5:53 PM
Moonset: 6:12 AM
Sky Conditions UV Index
Summary: Clear
Visibility: 10 miles
Clouds: None
KVIS - 12:56 PM PDT
Current: 8.0  Very High 
Thursday: 9.0  Very High 
Friday: 8.8  Very High 
Air Quality Fire Danger
 Good 
Ozone 57 ppb
PM 2.5 11 μg/m3
1:50 PM PDT
Current: 38  Low 

Local Alerts Local Forecast
Local NWS Alerts
Today

Mostly
Sunny
High 87
Tonight

Mostly
Clear
Low 59
Fri

Mostly
Sunny
High 90
Fri night

Mostly
Clear
Low 58
Sat

Mostly
Sunny
High 82
Sat night

Partly
Cloudy
Low 49
Sun

Mostly
Sunny
High 78

Local Radar Local Satellite Neighborhood Cam Sky Cam
Local Radar Local Satellite Neighborhood Cam Sky Cam


Nearby Airport Stations

KVIS - Visalia, California, USA
Distance from station: W 14mi, 23km
Updated: Thu, 18-Apr-2019 12:56pm PDT
Clear
Clear
 Wind from calm
Wind: Calm
Temperature: 77°F , 25°C
Dew Point: 52°F , 11°C
Humidity: 42%
Barometer: 30.11 inHg , 1019.6 hPa
Clouds: Clear
Visibility: 10 miles , 16 km
2019/04/18 19:56 KVIS 181956Z AUTO 00000KT 10SM CLR 25/11 A3011 RMK AO2 SLP203 T02500111
KPTV - Porterville, California, USA
Distance from station: SSE 19mi, 31km
Updated: Thu, 18-Apr-2019 12:56pm PDT
Clear
Clear
 Wind from N
Wind: N 5 mph , 7 km/h
Temperature: 81°F , 27°C
Dew Point: 52°F , 11°C
Humidity: 37%
Barometer: 30.11 inHg , 1019.6 hPa
Clouds: Clear
Visibility: 9 miles , 14 km
2019/04/18 19:56 KPTV 181956Z AUTO 01004KT 9SM CLR 27/11 A3011 RMK AO2 SLP206 T02670111

Metar display script from Saratoga-Weather.org



Visitor Map